Time;durP1;ratioP1;P1;durP2;ratioP2;P2;SDS_P1;SDS_P2;PMS_P1;PMS_P2;Temp;Humidity;BMP_temperature;BMP_pressure;BME280_temperature;BME280_humidity;BME280_pressure;Samples;Min_cycle;Max_cycle;Signal;HPM_P1;HPM_P2
2023/01/05 00:02:51;;;;;;;9.50;7.22;;;8.40;99.90;;;;;;1931526;74;21157;-90
2023/01/05 00:05:44;;;;;;;9.13;6.83;;;8.40;99.90;;;;;;1938577;73;21502;-89
2023/01/05 00:08:35;;;;;;;9.38;6.37;;;8.40;99.90;;;;;;1936599;73;21655;-89
2023/01/05 00:24:09;;;;;;;10.72;7.20;;;8.30;99.90;;;;;;1946427;73;21090;-90
2023/01/05 00:27:00;;;;;;;9.33;7.00;;;8.20;99.90;;;;;;1944696;73;21116;-90
2023/01/05 00:29:53;;;;;;;10.13;7.42;;;8.30;99.90;;;;;;1953855;73;21106;-90
2023/01/05 00:32:45;;;;;;;9.45;7.15;;;8.30;99.90;;;;;;1947538;73;21151;-89
2023/01/05 00:35:55;;;;;;;7.65;6.10;;;8.30;99.90;;;;;;1885552;74;21118;-89
2023/01/05 00:38:48;;;;;;;10.25;6.55;;;8.30;99.90;;;;;;1896617;74;21113;-89
2023/01/05 00:41:41;;;;;;;7.87;6.35;;;8.20;99.90;;;;;;1962540;72;21158;-90
2023/01/05 00:44:32;;;;;;;9.23;6.90;;;8.20;99.90;;;;;;1970688;72;21204;-90
2023/01/05 00:47:25;;;;;;;8.03;6.28;;;8.20;99.90;;;;;;1976031;73;21144;-90
2023/01/05 00:50:22;;;;;;;8.75;6.30;;;8.20;99.90;;;;;;1972867;73;21140;-90
2023/01/05 00:53:14;;;;;;;8.60;6.72;;;8.20;99.90;;;;;;1994508;71;21031;-90
2023/01/05 00:56:24;;;;;;;9.30;6.90;;;8.10;99.90;;;;;;1963943;73;21181;-90
2023/01/05 00:59:16;;;;;;;9.83;7.40;;;8.10;99.90;;;;;;1974334;72;21148;-90
2023/01/05 01:02:11;;;;;;;10.30;7.05;;;8.00;99.90;;;;;;1973109;72;21091;-90
2023/01/05 01:05:05;;;;;;;8.50;6.53;;;7.90;99.90;;;;;;1975450;71;21072;-89
2023/01/05 01:07:57;;;;;;;9.35;6.05;;;7.90;99.90;;;;;;1985482;71;21168;-89
2023/01/05 01:10:48;;;;;;;8.58;5.95;;;7.90;99.90;;;;;;1974813;72;21094;-88
2023/01/05 01:13:42;;;;;;;8.25;6.37;;;7.90;99.90;;;;;;1972527;72;21315;-89
2023/01/05 01:16:44;;;;;;;7.90;6.60;;;7.90;99.90;;;;;;1975837;72;21108;-89
2023/01/05 01:19:36;;;;;;;9.50;6.87;;;7.90;99.90;;;;;;1976979;72;21110;-89
2023/01/05 01:22:28;;;;;;;8.20;6.65;;;7.90;99.90;;;;;;1974837;72;21103;-90
2023/01/05 01:25:20;;;;;;;8.08;6.30;;;7.90;99.90;;;;;;1974621;72;21148;-89
2023/01/05 01:28:11;;;;;;;9.98;6.72;;;7.90;99.90;;;;;;1976690;72;21133;-89
2023/01/05 01:31:04;;;;;;;10.90;7.12;;;7.90;99.90;;;;;;1973043;72;21106;-89
2023/01/05 01:33:57;;;;;;;9.55;7.55;;;7.90;99.90;;;;;;1974397;72;21115;-89
2023/01/05 01:36:49;;;;;;;9.15;7.87;;;7.90;99.90;;;;;;1975172;72;21079;-90
2023/01/05 01:39:43;;;;;;;9.65;8.00;;;7.80;99.90;;;;;;1974158;72;21119;-88
2023/01/05 01:42:37;;;;;;;10.03;7.72;;;7.80;99.90;;;;;;1974858;72;21095;-89
2023/01/05 01:45:29;;;;;;;10.08;7.80;;;7.70;99.90;;;;;;1982054;72;21147;-89
2023/01/05 01:48:20;;;;;;;10.23;7.78;;;7.80;99.90;;;;;;1977521;72;21160;-89
2023/01/05 01:51:15;;;;;;;9.68;7.12;;;7.80;99.90;;;;;;1987879;71;21087;-89
2023/01/05 01:54:11;;;;;;;9.85;6.53;;;7.90;99.90;;;;;;1974951;71;21475;-89
2023/01/05 01:57:04;;;;;;;11.57;6.92;;;7.90;99.90;;;;;;1973262;72;21585;-89
2023/01/05 01:59:58;;;;;;;10.30;6.75;;;7.90;99.90;;;;;;1975020;72;21092;-89
2023/01/05 02:02:57;;;;;;;8.55;6.22;;;7.90;99.90;;;;;;1977104;72;21172;-90
2023/01/05 02:05:48;;;;;;;9.60;6.22;;;7.90;99.90;;;;;;1976940;72;21091;-88
2023/01/05 02:08:41;;;;;;;8.03;6.20;;;7.90;99.90;;;;;;1975073;72;21522;-89
2023/01/05 02:11:42;;;;;;;7.87;6.12;;;8.00;99.90;;;;;;1981267;72;21127;-90
2023/01/05 02:14:39;;;;;;;9.35;6.35;;;8.00;99.90;;;;;;1979703;72;21075;-89
2023/01/05 02:17:35;;;;;;;8.98;6.33;;;8.00;99.90;;;;;;1971967;73;21213;-90
2023/01/05 02:24:08;;;;;;;9.65;6.97;;;8.10;99.90;;;;;;1954915;72;22186;-91
2023/01/05 02:27:40;;;;;;;8.93;6.40;;;8.10;99.90;;;;;;1904389;74;21184;-90
2023/01/05 02:31:00;;;;;;;9.20;6.97;;;8.10;99.90;;;;;;1883534;75;21136;-89
2023/01/05 02:34:06;;;;;;;10.30;6.80;;;8.10;99.90;;;;;;1883625;76;21152;-90
2023/01/05 02:37:04;;;;;;;8.23;6.67;;;8.10;99.90;;;;;;1883302;76;21116;-90
2023/01/05 02:40:00;;;;;;;9.65;6.67;;;8.20;99.90;;;;;;1886142;75;21234;-90
2023/01/05 02:42:55;;;;;;;10.38;6.97;;;8.20;99.90;;;;;;1916481;75;21051;-90
2023/01/05 02:45:52;;;;;;;11.53;7.22;;;8.30;99.90;;;;;;1889690;75;21161;-89
2023/01/05 02:48:48;;;;;;;8.85;7.10;;;8.30;99.90;;;;;;1883629;76;21068;-89
2023/01/05 02:51:42;;;;;;;10.38;7.22;;;8.30;99.90;;;;;;1883707;76;21063;-89
2023/01/05 02:54:37;;;;;;;9.30;7.37;;;8.30;99.90;;;;;;1898336;75;21122;-92
2023/01/05 02:57:46;;;;;;;9.28;7.35;;;8.30;99.90;;;;;;1884575;75;21117;-92
2023/01/05 03:00:45;;;;;;;9.35;7.22;;;8.30;99.90;;;;;;1906391;75;21098;-90
2023/01/05 03:03:39;;;;;;;9.13;6.85;;;8.30;99.90;;;;;;1910937;75;21099;-91
2023/01/05 03:06:45;;;;;;;9.03;6.97;;;8.30;99.90;;;;;;1894924;75;21143;-90
2023/01/05 03:09:35;;;;;;;9.00;6.65;;;8.30;99.90;;;;;;1916753;75;21872;-90
2023/01/05 03:15:19;;;;;;;9.28;6.75;;;8.30;99.90;;;;;;1951632;72;22171;-90
2023/01/05 03:18:14;;;;;;;7.30;6.00;;;8.30;99.90;;;;;;1884387;75;21099;-89
2023/01/05 03:21:08;;;;;;;8.03;6.55;;;8.30;99.90;;;;;;1881299;75;21112;-89
2023/01/05 03:36:38;;;;;;;7.67;6.25;;;8.20;99.90;;;;;;1961607;72;22454;-90
2023/01/05 03:39:49;;;;;;;7.53;5.97;;;8.30;99.90;;;;;;1916291;75;21113;-90
2023/01/05 03:42:43;;;;;;;8.30;5.80;;;8.30;99.90;;;;;;1916432;75;21167;-90
2023/01/05 03:45:39;;;;;;;6.97;6.28;;;8.20;99.90;;;;;;1916750;75;21058;-90
2023/01/05 03:48:32;;;;;;;8.85;6.10;;;8.20;99.90;;;;;;1937606;73;21114;-90
2023/01/05 03:51:23;;;;;;;8.65;6.40;;;8.20;99.90;;;;;;1934797;73;21187;-90
2023/01/05 03:54:15;;;;;;;7.75;5.70;;;8.20;99.90;;;;;;1916867;75;21094;-90
2023/01/05 03:57:09;;;;;;;9.00;6.40;;;8.30;99.90;;;;;;1921705;73;21712;-90
2023/01/05 04:00:01;;;;;;;7.87;5.90;;;8.30;99.90;;;;;;1949221;73;21094;-90
2023/01/05 04:02:55;;;;;;;10.05;6.17;;;8.30;99.90;;;;;;1916351;75;21121;-90
2023/01/05 04:05:50;;;;;;;8.40;6.55;;;8.30;99.90;;;;;;1916823;75;21115;-90
2023/01/05 04:08:44;;;;;;;9.85;6.22;;;8.30;99.90;;;;;;1916792;75;21079;-90
2023/01/05 04:11:36;;;;;;;8.03;5.55;;;8.30;99.90;;;;;;1920551;73;21116;-92
2023/01/05 04:14:28;;;;;;;6.87;5.35;;;8.20;99.90;;;;;;1950170;73;21393;-90
2023/01/05 04:17:22;;;;;;;7.92;6.30;;;8.20;99.90;;;;;;1916847;75;21153;-91
2023/01/05 04:20:16;;;;;;;7.75;6.00;;;8.20;99.90;;;;;;1927881;73;21147;-90
2023/01/05 04:23:08;;;;;;;8.03;6.45;;;8.20;99.90;;;;;;1927251;73;21095;-91
2023/01/05 04:26:00;;;;;;;8.23;6.67;;;8.20;99.90;;;;;;1926140;73;21920;-91
2023/01/05 04:28:52;;;;;;;9.43;6.17;;;8.10;99.90;;;;;;1916377;75;21110;-91
2023/01/05 04:31:46;;;;;;;8.45;6.40;;;8.00;99.90;;;;;;1920052;75;21184;-89
2023/01/05 04:34:38;;;;;;;8.48;5.90;;;8.10;99.90;;;;;;1917738;75;21093;-90
2023/01/05 04:37:30;;;;;;;7.78;6.05;;;8.10;99.90;;;;;;1917129;75;21196;-91
2023/01/05 04:40:26;;;;;;;7.47;6.25;;;8.10;99.90;;;;;;1916300;75;21423;-90
2023/01/05 04:43:19;;;;;;;7.92;5.60;;;8.20;99.90;;;;;;1916465;75;21090;-90
2023/01/05 04:46:11;;;;;;;9.68;5.47;;;8.20;99.90;;;;;;1929191;73;21236;-90
2023/01/05 04:49:06;;;;;;;7.20;5.95;;;8.20;99.90;;;;;;1920407;73;21106;-89
2023/01/05 04:52:01;;;;;;;7.42;5.67;;;8.30;99.90;;;;;;1916554;75;21115;-90
2023/01/05 04:54:55;;;;;;;8.18;6.55;;;8.20;99.90;;;;;;1916371;75;21108;-90
2023/01/05 04:57:49;;;;;;;6.80;6.10;;;8.20;99.90;;;;;;1916313;75;21118;-90
2023/01/05 05:00:44;;;;;;;9.65;6.85;;;8.30;99.90;;;;;;1916295;75;21107;-91
2023/01/05 05:03:37;;;;;;;7.70;6.00;;;8.20;99.90;;;;;;1916260;75;21380;-90
2023/01/05 05:06:30;;;;;;;8.40;6.33;;;8.20;99.90;;;;;;1939046;73;21095;-89
2023/01/05 05:09:24;;;;;;;10.25;6.40;;;8.20;99.90;;;;;;1916526;75;21131;-90
2023/01/05 05:12:19;;;;;;;8.58;6.53;;;8.20;99.90;;;;;;1916818;75;21091;-91
2023/01/05 05:15:13;;;;;;;9.08;6.90;;;8.20;99.90;;;;;;1916354;75;21304;-90
2023/01/05 05:18:07;;;;;;;8.23;6.53;;;8.10;99.90;;;;;;1938856;73;21142;-91
2023/01/05 05:21:01;;;;;;;10.00;6.72;;;8.20;99.90;;;;;;1915954;75;21098;-92
2023/01/05 05:23:55;;;;;;;8.08;6.25;;;8.20;99.90;;;;;;1934249;73;21108;-90
2023/01/05 05:26:48;;;;;;;7.62;6.05;;;8.30;99.90;;;;;;1923412;73;21110;-90
2023/01/05 05:29:40;;;;;;;8.03;6.22;;;8.30;99.90;;;;;;1918827;73;21248;-90
2023/01/05 05:32:32;;;;;;;8.40;6.20;;;8.40;99.90;;;;;;1915969;75;21107;-90
2023/01/05 05:35:25;;;;;;;7.25;5.83;;;8.40;99.90;;;;;;1916362;75;21200;-91
2023/01/05 05:38:22;;;;;;;6.97;6.15;;;8.40;99.90;;;;;;1916203;75;21122;-91
2023/01/05 05:41:18;;;;;;;8.18;6.55;;;8.40;99.90;;;;;;1927467;73;21074;-90
2023/01/05 05:44:11;;;;;;;6.62;5.90;;;8.40;99.90;;;;;;1950235;73;21146;-91
2023/01/05 05:47:06;;;;;;;6.67;5.65;;;8.40;99.90;;;;;;1926744;73;21152;-90
2023/01/05 05:50:00;;;;;;;8.83;6.20;;;8.40;99.90;;;;;;1930411;73;21138;-90
2023/01/05 05:52:54;;;;;;;7.47;5.80;;;8.40;99.90;;;;;;1915487;75;21168;-90
2023/01/05 05:55:51;;;;;;;6.50;5.53;;;8.40;99.90;;;;;;1915275;75;21128;-90
2023/01/05 05:58:43;;;;;;;7.67;5.80;;;8.40;99.90;;;;;;1915517;75;21055;-89
2023/01/05 06:01:39;;;;;;;9.73;5.90;;;8.40;99.90;;;;;;1915859;75;21145;-91
2023/01/05 06:04:35;;;;;;;7.67;5.87;;;8.40;99.90;;;;;;1915868;75;21121;-92
2023/01/05 06:07:29;;;;;;;9.95;7.12;;;8.40;99.90;;;;;;1916362;75;21111;-90
2023/01/05 06:10:24;;;;;;;8.65;6.33;;;8.50;99.90;;;;;;1938292;73;21697;-90
2023/01/05 06:13:19;;;;;;;8.70;6.10;;;8.50;99.90;;;;;;1915779;75;21168;-90
2023/01/05 06:16:14;;;;;;;9.03;5.95;;;8.50;99.90;;;;;;1916225;75;21156;-89
2023/01/05 06:19:15;;;;;;;8.35;6.10;;;8.50;99.90;;;;;;1915971;75;21179;-91
2023/01/05 06:22:11;;;;;;;7.28;5.58;;;8.50;99.90;;;;;;1932440;73;21122;-90
2023/01/05 06:25:12;;;;;;;6.40;5.22;;;8.50;99.90;;;;;;1917624;75;21084;-90
2023/01/05 06:28:07;;;;;;;6.80;5.55;;;8.50;99.90;;;;;;1885429;75;21176;-90
2023/01/05 06:31:04;;;;;;;7.87;5.47;;;8.50;99.90;;;;;;1915685;75;21690;-89
2023/01/05 06:33:58;;;;;;;8.70;6.45;;;8.50;99.90;;;;;;1898108;75;21094;-88
2023/01/05 06:36:56;;;;;;;8.65;5.45;;;8.60;99.90;;;;;;1915679;74;21094;-90
2023/01/05 06:39:55;;;;;;;9.25;5.90;;;8.60;99.90;;;;;;1907920;74;21176;-90
2023/01/05 06:42:52;;;;;;;8.55;6.10;;;8.60;99.90;;;;;;1893997;74;21156;-91
2023/01/05 06:45:49;;;;;;;6.90;5.50;;;8.60;99.90;;;;;;1899099;73;21091;-90
2023/01/05 06:48:46;;;;;;;7.45;5.65;;;8.60;99.90;;;;;;1889071;75;21162;-90
2023/01/05 06:51:42;;;;;;;8.10;6.05;;;8.60;99.90;;;;;;1894512;75;21124;-92
2023/01/05 06:54:36;;;;;;;8.45;6.05;;;8.60;99.90;;;;;;1891497;75;21117;-91
2023/01/05 06:57:31;;;;;;;8.18;6.12;;;8.60;99.90;;;;;;1891214;75;21102;-90
2023/01/05 07:00:28;;;;;;;7.03;5.83;;;8.70;99.90;;;;;;1893460;75;21172;-90
2023/01/05 07:03:23;;;;;;;11.88;6.33;;;8.60;99.90;;;;;;1907591;75;21188;-92
2023/01/05 07:06:18;;;;;;;9.03;5.95;;;8.60;99.90;;;;;;1889518;76;21217;-90
2023/01/05 07:09:11;;;;;;;8.85;6.53;;;8.60;99.90;;;;;;1880807;74;21348;-90
2023/01/05 07:12:04;;;;;;;7.83;5.95;;;8.70;99.90;;;;;;1920251;74;21148;-91
2023/01/05 07:15:00;;;;;;;5.97;5.08;;;8.70;99.90;;;;;;1891036;74;21092;-90
2023/01/05 07:17:54;;;;;;;7.62;5.87;;;8.80;99.90;;;;;;1889216;75;21108;-91
2023/01/05 07:20:52;;;;;;;8.68;6.72;;;8.80;99.90;;;;;;1889535;76;21107;-91
2023/01/05 07:23:50;;;;;;;9.38;5.70;;;8.80;99.90;;;;;;1905296;74;21060;-90
2023/01/05 07:26:52;;;;;;;8.75;5.60;;;8.80;99.90;;;;;;1901060;74;21103;-90
2023/01/05 07:29:49;;;;;;;8.18;5.92;;;8.70;99.90;;;;;;1915293;74;21071;-91
2023/01/05 07:32:59;;;;;;;8.80;5.60;;;8.80;99.90;;;;;;1890228;75;21112;-91
2023/01/05 07:35:57;;;;;;;8.75;5.83;;;8.80;99.90;;;;;;1891790;74;21111;-90
2023/01/05 07:38:51;;;;;;;7.67;4.90;;;8.80;99.90;;;;;;1898033;75;21129;-89
